Main page
METAR-TAF:

METAR-TAF

Airports :

Doha, Qatar

Hamad International Airport

latitude: 25-16-23N, longitude: 51-36-29E, elevation: 4 m

Current weather observation

The report was made 53 minutes ago, at 04:00 UTC
Wind 8 kt from the West
Temperature 27°C
Humidity 74%
Pressure 1010 hPa
Visibility 10 km or more
no clouds below 1500 m and no cumulonimbus

METAR: OTHH 220400Z 28008KT CAVOK 27/22 Q1010 NOSIG

Time: 07:53 (04:53 UTC)

Forecast

The report was made 5 hours and 51 minutes ago, at 23:02 UTC
Forecast valid from 22 at 00 UTC to 23 at 06 UTC
Wind 5 kt from the West/Northwest
Visibility 10 km or more
no clouds below 1500 m and no cumulonimbus
Becoming
from 22 at 08 UTC to 22 at 10 UTC
Wind 12 kt from the North/Northeast
Becoming
from 22 at 15 UTC to 22 at 17 UTC
Wind 8 kt from the Northwest

TAF: OTHH 212302Z 2200/2306 30005KT CAVOK BECMG 2208/2210 02012KT BECMG 2215/2217 32008KT

Weather observations and forecasts of more than 4000 airports (METAR and TAF reports).

The available stations are represented by yellow and red dots on the map.

Hover mouse over dot to see the name of the station.

Then click to see weather observations and forecasts.

To change the map : click on the green buttons with a black cross to zoom in, on the green button with a dash to zoom out, or on the green arrows for adjacent maps.


METAR-TAF: